sensor_id;sensor_type;location;lat;lon;timestamp;pressure;altitude;pressure_sealevel;temperature;humidity
62833;BME280;48891;49.220;6.920;2024-03-08T00:02:08;98777.66;;;15.51;75.59
62833;BME280;48891;49.220;6.920;2024-03-08T00:04:33;98776.66;;;15.52;75.50
62833;BME280;48891;49.220;6.920;2024-03-08T00:06:59;98775.81;;;15.52;75.39
62833;BME280;48891;49.220;6.920;2024-03-08T00:09:24;98772.56;;;15.48;75.50
62833;BME280;48891;49.220;6.920;2024-03-08T00:11:49;98774.28;;;15.49;75.66
62833;BME280;48891;49.220;6.920;2024-03-08T00:14:14;98769.78;;;15.50;75.49
62833;BME280;48891;49.220;6.920;2024-03-08T00:16:40;98766.31;;;15.49;75.52
62833;BME280;48891;49.220;6.920;2024-03-08T00:19:05;98761.81;;;15.50;75.71
62833;BME280;48891;49.220;6.920;2024-03-08T00:21:30;98761.81;;;15.50;75.57
62833;BME280;48891;49.220;6.920;2024-03-08T00:23:55;98753.84;;;15.50;75.57
62833;BME280;48891;49.220;6.920;2024-03-08T00:26:21;98754.81;;;15.49;75.33
62833;BME280;48891;49.220;6.920;2024-03-08T00:28:46;98749.50;;;15.49;75.62
62833;BME280;48891;49.220;6.920;2024-03-08T00:31:11;98750.47;;;15.48;75.34
62833;BME280;48891;49.220;6.920;2024-03-08T00:33:37;98748.88;;;15.45;75.21
62833;BME280;48891;49.220;6.920;2024-03-08T00:36:02;98745.28;;;15.46;75.65
62833;BME280;48891;49.220;6.920;2024-03-08T00:38:27;98753.25;;;15.46;75.47
62833;BME280;48891;49.220;6.920;2024-03-08T00:40:52;98747.94;;;15.46;75.59
62833;BME280;48891;49.220;6.920;2024-03-08T00:43:18;98749.59;;;15.47;75.25
62833;BME280;48891;49.220;6.920;2024-03-08T00:45:43;98731.28;;;15.44;75.50
62833;BME280;48891;49.220;6.920;2024-03-08T00:48:08;98733.81;;;15.46;75.33
62833;BME280;48891;49.220;6.920;2024-03-08T00:50:34;98733.94;;;15.44;75.47
62833;BME280;48891;49.220;6.920;2024-03-08T00:52:59;98731.00;;;15.47;75.09
62833;BME280;48891;49.220;6.920;2024-03-08T00:55:24;98722.44;;;15.44;74.80
62833;BME280;48891;49.220;6.920;2024-03-08T00:57:51;98723.31;;;15.44;75.43
62833;BME280;48891;49.220;6.920;2024-03-08T01:00:16;98716.53;;;15.40;75.48
62833;BME280;48891;49.220;6.920;2024-03-08T01:02:42;98720.75;;;15.43;75.32
62833;BME280;48891;49.220;6.920;2024-03-08T01:05:07;98693.56;;;15.28;74.95
62833;BME280;48891;49.220;6.920;2024-03-08T01:07:35;98704.22;;;15.39;74.69
62833;BME280;48891;49.220;6.920;2024-03-08T01:10:04;98714.59;;;15.42;75.09
62833;BME280;48891;49.220;6.920;2024-03-08T01:12:29;98707.09;;;15.36;74.36
62833;BME280;48891;49.220;6.920;2024-03-08T01:14:55;98681.00;;;15.18;74.71
62833;BME280;48891;49.220;6.920;2024-03-08T01:17:20;98702.03;;;15.33;75.08
62833;BME280;48891;49.220;6.920;2024-03-08T01:19:46;98696.72;;;15.33;74.45
62833;BME280;48891;49.220;6.920;2024-03-08T01:22:11;98701.19;;;15.32;74.65
62833;BME280;48891;49.220;6.920;2024-03-08T01:24:36;98691.53;;;15.31;75.17
62833;BME280;48891;49.220;6.920;2024-03-08T01:27:02;98682.84;;;15.29;75.07
62833;BME280;48891;49.220;6.920;2024-03-08T01:29:27;98681.28;;;15.27;75.16
62833;BME280;48891;49.220;6.920;2024-03-08T01:31:52;98683.69;;;15.30;75.38
62833;BME280;48891;49.220;6.920;2024-03-08T01:34:17;98682.72;;;15.31;74.74
62833;BME280;48891;49.220;6.920;2024-03-08T01:36:42;98679.09;;;15.32;75.46
62833;BME280;48891;49.220;6.920;2024-03-08T01:39:08;98671.25;;;15.30;75.49
62833;BME280;48891;49.220;6.920;2024-03-08T01:41:34;98674.75;;;15.31;75.27
62833;BME280;48891;49.220;6.920;2024-03-08T01:43:59;98672.09;;;15.31;74.95
62833;BME280;48891;49.220;6.920;2024-03-08T01:46:24;98670.28;;;15.31;75.50
62833;BME280;48891;49.220;6.920;2024-03-08T01:48:50;98672.69;;;15.34;75.35
62833;BME280;48891;49.220;6.920;2024-03-08T01:51:15;98637.09;;;15.14;75.34
62833;BME280;48891;49.220;6.920;2024-03-08T01:53:42;98662.91;;;15.35;75.02
62833;BME280;48891;49.220;6.920;2024-03-08T01:56:10;98655.81;;;15.35;75.25
62833;BME280;48891;49.220;6.920;2024-03-08T01:58:35;98655.94;;;15.34;75.16
62833;BME280;48891;49.220;6.920;2024-03-08T02:01:01;98650.50;;;15.35;75.58
62833;BME280;48891;49.220;6.920;2024-03-08T02:03:26;98624.41;;;15.18;74.70
62833;BME280;48891;49.220;6.920;2024-03-08T02:05:52;98646.97;;;15.35;75.13
62833;BME280;48891;49.220;6.920;2024-03-08T02:08:19;98636.34;;;15.35;75.31
62833;BME280;48891;49.220;6.920;2024-03-08T02:10:45;98632.03;;;15.34;74.94
62833;BME280;48891;49.220;6.920;2024-03-08T02:13:11;98638.16;;;15.34;75.25
62833;BME280;48891;49.220;6.920;2024-03-08T02:15:58;98627.53;;;15.34;75.23
62833;BME280;48891;49.220;6.920;2024-03-08T02:18:24;98629.38;;;15.34;75.08
62833;BME280;48891;49.220;6.920;2024-03-08T02:20:53;98593.88;;;15.12;75.17
62833;BME280;48891;49.220;6.920;2024-03-08T02:23:19;98626.59;;;15.35;75.35
62833;BME280;48891;49.220;6.920;2024-03-08T02:25:44;98616.22;;;15.32;75.20
62833;BME280;48891;49.220;6.920;2024-03-08T02:28:13;98617.91;;;15.33;75.30
62833;BME280;48891;49.220;6.920;2024-03-08T02:30:38;98619.69;;;15.33;75.42
62833;BME280;48891;49.220;6.920;2024-03-08T02:33:06;98614.25;;;15.34;75.28
62833;BME280;48891;49.220;6.920;2024-03-08T02:35:35;98607.41;;;15.32;75.43
62833;BME280;48891;49.220;6.920;2024-03-08T02:38:01;98606.41;;;15.33;74.86
62833;BME280;48891;49.220;6.920;2024-03-08T02:40:26;98598.56;;;15.31;75.13
62833;BME280;48891;49.220;6.920;2024-03-08T02:42:51;98600.28;;;15.32;74.89
62833;BME280;48891;49.220;6.920;2024-03-08T02:45:17;98594.13;;;15.32;75.38
62833;BME280;48891;49.220;6.920;2024-03-08T02:47:42;98595.06;;;15.31;75.37
62833;BME280;48891;49.220;6.920;2024-03-08T02:50:07;98598.56;;;15.31;75.27
62833;BME280;48891;49.220;6.920;2024-03-08T02:52:36;98588.69;;;15.22;74.96
62833;BME280;48891;49.220;6.920;2024-03-08T02:55:04;98591.59;;;15.30;74.96
62833;BME280;48891;49.220;6.920;2024-03-08T02:57:29;98605.81;;;15.29;74.94
62833;BME280;48891;49.220;6.920;2024-03-08T02:59:55;98590.75;;;15.30;74.83
62833;BME280;48891;49.220;6.920;2024-03-08T03:02:20;98587.22;;;15.29;75.02
62833;BME280;48891;49.220;6.920;2024-03-08T03:04:45;98584.44;;;15.31;74.97
62833;BME280;48891;49.220;6.920;2024-03-08T03:07:10;98567.44;;;15.22;75.00
62833;BME280;48891;49.220;6.920;2024-03-08T03:09:36;98577.59;;;15.28;75.06
62833;BME280;48891;49.220;6.920;2024-03-08T03:12:01;98572.28;;;15.28;75.22
62833;BME280;48891;49.220;6.920;2024-03-08T03:14:26;98568.63;;;15.29;75.27
62833;BME280;48891;49.220;6.920;2024-03-08T03:16:51;98565.25;;;15.27;75.18
62833;BME280;48891;49.220;6.920;2024-03-08T03:19:16;98575.06;;;15.27;75.06
62833;BME280;48891;49.220;6.920;2024-03-08T03:21:42;98569.75;;;15.27;74.92
62833;BME280;48891;49.220;6.920;2024-03-08T03:24:07;98565.16;;;15.29;75.07
62833;BME280;48891;49.220;6.920;2024-03-08T03:26:32;98563.44;;;15.28;74.67
62833;BME280;48891;49.220;6.920;2024-03-08T03:28:57;98564.44;;;15.27;75.07
62833;BME280;48891;49.220;6.920;2024-03-08T03:31:23;98562.72;;;15.26;74.86
62833;BME280;48891;49.220;6.920;2024-03-08T03:33:48;98566.38;;;15.25;74.71
62833;BME280;48891;49.220;6.920;2024-03-08T03:36:13;98563.56;;;15.26;74.78
62833;BME280;48891;49.220;6.920;2024-03-08T03:38:38;98568.03;;;15.26;74.82
62833;BME280;48891;49.220;6.920;2024-03-08T03:41:04;98552.50;;;15.21;74.76
62833;BME280;48891;49.220;6.920;2024-03-08T03:43:29;98522.06;;;15.03;75.10
62833;BME280;48891;49.220;6.920;2024-03-08T03:45:54;98519.53;;;15.01;74.58
62833;BME280;48891;49.220;6.920;2024-03-08T03:48:19;98547.91;;;15.23;74.73
62833;BME280;48891;49.220;6.920;2024-03-08T03:50:45;98553.81;;;15.27;75.10
62833;BME280;48891;49.220;6.920;2024-03-08T03:53:10;98550.28;;;15.26;74.59
62833;BME280;48891;49.220;6.920;2024-03-08T03:55:35;98543.41;;;15.24;74.66
62833;BME280;48891;49.220;6.920;2024-03-08T03:58:01;98550.28;;;15.26;74.81
62833;BME280;48891;49.220;6.920;2024-03-08T04:00:26;98538.00;;;15.25;74.72
62833;BME280;48891;49.220;6.920;2024-03-08T04:02:52;98543.41;;;15.24;75.07
62833;BME280;48891;49.220;6.920;2024-03-08T04:05:17;98545.97;;;15.25;75.02
62833;BME280;48891;49.220;6.920;2024-03-08T04:07:43;98552.34;;;15.23;74.64
62833;BME280;48891;49.220;6.920;2024-03-08T04:10:08;98554.03;;;15.24;75.00
62833;BME280;48891;49.220;6.920;2024-03-08T04:12:34;98548.72;;;15.24;74.71
62833;BME280;48891;49.220;6.920;2024-03-08T04:14:59;98551.38;;;15.24;74.68
62833;BME280;48891;49.220;6.920;2024-03-08T04:17:25;98547.03;;;15.23;74.76
62833;BME280;48891;49.220;6.920;2024-03-08T04:19:50;98546.06;;;15.24;74.84
62833;BME280;48891;49.220;6.920;2024-03-08T04:22:16;98522.09;;;15.14;74.74
62833;BME280;48891;49.220;6.920;2024-03-08T04:24:41;98545.25;;;15.23;74.95
62833;BME280;48891;49.220;6.920;2024-03-08T04:27:06;98520.03;;;15.06;75.09
62833;BME280;48891;49.220;6.920;2024-03-08T04:29:31;98539.06;;;15.23;74.96
62833;BME280;48891;49.220;6.920;2024-03-08T04:31:57;98542.59;;;15.23;74.39
62833;BME280;48891;49.220;6.920;2024-03-08T04:34:22;98538.34;;;15.21;74.93
62833;BME280;48891;49.220;6.920;2024-03-08T04:36:48;98542.72;;;15.22;74.90
62833;BME280;48891;49.220;6.920;2024-03-08T04:39:13;98535.69;;;15.21;74.43
62833;BME280;48891;49.220;6.920;2024-03-08T04:41:39;98536.69;;;15.19;74.67
62833;BME280;48891;49.220;6.920;2024-03-08T04:44:05;98533.31;;;15.17;75.13
62833;BME280;48891;49.220;6.920;2024-03-08T04:46:30;98542.00;;;15.19;74.99
62833;BME280;48891;49.220;6.920;2024-03-08T04:48:56;98540.28;;;15.18;75.09
62833;BME280;48891;49.220;6.920;2024-03-08T04:51:21;98527.25;;;15.15;74.82
62833;BME280;48891;49.220;6.920;2024-03-08T04:53:46;98532.56;;;15.15;74.93
62833;BME280;48891;49.220;6.920;2024-03-08T04:56:12;98524.00;;;15.12;74.86
62833;BME280;48891;49.220;6.920;2024-03-08T04:58:37;98528.84;;;15.18;75.29
62833;BME280;48891;49.220;6.920;2024-03-08T05:01:02;98524.59;;;15.15;74.67
62833;BME280;48891;49.220;6.920;2024-03-08T05:03:27;98530.78;;;15.16;75.16
62833;BME280;48891;49.220;6.920;2024-03-08T05:05:53;98531.59;;;15.16;74.84
62833;BME280;48891;49.220;6.920;2024-03-08T05:08:18;98522.69;;;15.17;75.15
62833;BME280;48891;49.220;6.920;2024-03-08T05:10:44;98506.53;;;14.98;74.97
62833;BME280;48891;49.220;6.920;2024-03-08T05:13:09;98529.91;;;15.15;74.96
62833;BME280;48891;49.220;6.920;2024-03-08T05:15:34;98492.78;;;14.93;75.00
62833;BME280;48891;49.220;6.920;2024-03-08T05:18:00;98524.75;;;15.14;75.27
62833;BME280;48891;49.220;6.920;2024-03-08T05:20:25;98525.69;;;15.13;75.21
62833;BME280;48891;49.220;6.920;2024-03-08T05:22:50;98527.41;;;15.14;74.67
62833;BME280;48891;49.220;6.920;2024-03-08T05:25:16;98522.09;;;15.14;75.17
62833;BME280;48891;49.220;6.920;2024-03-08T05:27:41;98527.50;;;15.12;75.14
62833;BME280;48891;49.220;6.920;2024-03-08T05:30:06;98522.44;;;15.09;75.09
62833;BME280;48891;49.220;6.920;2024-03-08T05:32:32;98523.16;;;15.11;75.11
62833;BME280;48891;49.220;6.920;2024-03-08T05:34:57;98524.00;;;15.12;75.36
62833;BME280;48891;49.220;6.920;2024-03-08T05:37:22;98528.47;;;15.11;74.86
62833;BME280;48891;49.220;6.920;2024-03-08T05:39:47;98482.28;;;14.91;75.23
62833;BME280;48891;49.220;6.920;2024-03-08T05:42:13;98513.38;;;15.12;74.97
62833;BME280;48891;49.220;6.920;2024-03-08T05:44:38;98526.81;;;15.10;75.25
62833;BME280;48891;49.220;6.920;2024-03-08T05:47:03;98521.34;;;15.12;75.18
62833;BME280;48891;49.220;6.920;2024-03-08T05:49:28;98523.88;;;15.13;74.76
62833;BME280;48891;49.220;6.920;2024-03-08T05:51:54;98517.84;;;15.11;75.21
62833;BME280;48891;49.220;6.920;2024-03-08T05:54:19;98516.19;;;15.10;75.03
62833;BME280;48891;49.220;6.920;2024-03-08T05:56:44;98512.66;;;15.10;74.79
62833;BME280;48891;49.220;6.920;2024-03-08T05:59:10;98511.00;;;15.09;74.85
62833;BME280;48891;49.220;6.920;2024-03-08T06:01:36;98504.69;;;15.10;74.98
62833;BME280;48891;49.220;6.920;2024-03-08T06:04:02;98501.09;;;15.11;75.10
62833;BME280;48891;49.220;6.920;2024-03-08T06:09:00;98488.41;;;15.03;75.20
62833;BME280;48891;49.220;6.920;2024-03-08T06:11:25;98493.25;;;15.09;75.14
62833;BME280;48891;49.220;6.920;2024-03-08T06:13:51;98493.25;;;15.09;74.71
62833;BME280;48891;49.220;6.920;2024-03-08T06:16:16;98497.59;;;15.10;75.08
62833;BME280;48891;49.220;6.920;2024-03-08T06:18:41;98492.28;;;15.10;75.17
62833;BME280;48891;49.220;6.920;2024-03-08T06:21:07;98488.75;;;15.10;74.64
62833;BME280;48891;49.220;6.920;2024-03-08T06:23:33;98474.53;;;14.99;74.95
62833;BME280;48891;49.220;6.920;2024-03-08T06:25:58;98497.44;;;15.12;75.03
62833;BME280;48891;49.220;6.920;2024-03-08T06:28:24;98495.78;;;15.11;74.61
62833;BME280;48891;49.220;6.920;2024-03-08T06:30:49;98492.28;;;15.10;74.92
62833;BME280;48891;49.220;6.920;2024-03-08T06:33:15;98489.47;;;15.12;75.18
62833;BME280;48891;49.220;6.920;2024-03-08T06:35:40;98498.31;;;15.12;74.71
62833;BME280;48891;49.220;6.920;2024-03-08T06:38:05;98492.28;;;15.10;75.22
62833;BME280;48891;49.220;6.920;2024-03-08T06:40:30;98496.63;;;15.11;74.99
62833;BME280;48891;49.220;6.920;2024-03-08T06:42:55;98489.63;;;15.10;75.04
62833;BME280;48891;49.220;6.920;2024-03-08T06:45:21;98497.31;;;15.13;74.67
62833;BME280;48891;49.220;6.920;2024-03-08T06:47:47;98487.81;;;15.11;75.24
62833;BME280;48891;49.220;6.920;2024-03-08T06:50:12;98496.63;;;15.11;74.48
62833;BME280;48891;49.220;6.920;2024-03-08T06:52:37;98494.66;;;15.13;74.79
62833;BME280;48891;49.220;6.920;2024-03-08T06:55:03;98502.63;;;15.13;74.86
62833;BME280;48891;49.220;6.920;2024-03-08T06:57:28;98498.03;;;15.15;74.85
62833;BME280;48891;49.220;6.920;2024-03-08T06:59:53;98491.91;;;15.15;74.67
62833;BME280;48891;49.220;6.920;2024-03-08T07:02:19;98491.78;;;15.16;74.63
62833;BME280;48891;49.220;6.920;2024-03-08T07:04:44;98495.97;;;15.19;74.65
62833;BME280;48891;49.220;6.920;2024-03-08T07:07:09;98490.81;;;15.17;74.67
62833;BME280;48891;49.220;6.920;2024-03-08T07:09:35;98489.72;;;15.20;74.18
62833;BME280;48891;49.220;6.920;2024-03-08T07:12:01;98487.91;;;15.21;74.33
62833;BME280;48891;49.220;6.920;2024-03-08T07:14:26;98479.94;;;15.21;74.67
62833;BME280;48891;49.220;6.920;2024-03-08T07:16:51;98487.66;;;15.24;74.24
62833;BME280;48891;49.220;6.920;2024-03-08T07:19:17;98478.50;;;15.16;74.41
62833;BME280;48891;49.220;6.920;2024-03-08T07:21:43;98485.00;;;15.24;74.12
62833;BME280;48891;49.220;6.920;2024-03-08T07:24:08;98472.44;;;15.26;74.57
62833;BME280;48891;49.220;6.920;2024-03-08T07:26:34;98474.13;;;15.27;74.38
62833;BME280;48891;49.220;6.920;2024-03-08T07:28:59;98473.91;;;15.30;74.42
62833;BME280;48891;49.220;6.920;2024-03-08T07:31:24;98467.25;;;15.35;74.26
62833;BME280;48891;49.220;6.920;2024-03-08T07:33:49;98470.38;;;15.41;74.01
62833;BME280;48891;49.220;6.920;2024-03-08T07:36:15;98466.84;;;15.40;73.72
62833;BME280;48891;49.220;6.920;2024-03-08T07:38:40;98474.44;;;15.45;74.04
62833;BME280;48891;49.220;6.920;2024-03-08T07:41:05;98469.72;;;15.48;73.60
62833;BME280;48891;49.220;6.920;2024-03-08T07:43:30;98462.47;;;15.50;73.49
62833;BME280;48891;49.220;6.920;2024-03-08T07:45:56;98463.88;;;15.54;73.32
62833;BME280;48891;49.220;6.920;2024-03-08T07:48:21;98464.34;;;15.60;73.20
62833;BME280;48891;49.220;6.920;2024-03-08T07:50:46;98458.81;;;15.63;73.37
62833;BME280;48891;49.220;6.920;2024-03-08T07:53:11;98463.75;;;15.67;73.16
62833;BME280;48891;49.220;6.920;2024-03-08T07:55:37;98450.47;;;15.67;73.07
62833;BME280;48891;49.220;6.920;2024-03-08T07:58:02;98427.28;;;15.58;72.55
62833;BME280;48891;49.220;6.920;2024-03-08T08:00:28;98458.66;;;15.75;72.62
62833;BME280;48891;49.220;6.920;2024-03-08T08:02:54;98457.81;;;15.75;72.70
62833;BME280;48891;49.220;6.920;2024-03-08T08:05:19;98454.19;;;15.76;72.56
62833;BME280;48891;49.220;6.920;2024-03-08T08:07:45;98454.78;;;15.80;72.63
62833;BME280;48891;49.220;6.920;2024-03-08T08:10:12;98444.16;;;15.80;72.69
62833;BME280;48891;49.220;6.920;2024-03-08T08:12:37;98446.53;;;15.83;72.49
62833;BME280;48891;49.220;6.920;2024-03-08T08:15:03;98439.28;;;15.85;72.71
62833;BME280;48891;49.220;6.920;2024-03-08T08:17:28;98440.13;;;15.85;72.59
62833;BME280;48891;49.220;6.920;2024-03-08T08:19:53;98447.00;;;15.88;72.55
62833;BME280;48891;49.220;6.920;2024-03-08T08:22:18;98436.34;;;15.88;72.66
62833;BME280;48891;49.220;6.920;2024-03-08T08:24:44;98438.63;;;15.92;72.45
62833;BME280;48891;49.220;6.920;2024-03-08T08:27:09;98420.69;;;15.85;72.67
62833;BME280;48891;49.220;6.920;2024-03-08T08:29:34;98439.81;;;16.00;72.53
62833;BME280;48891;49.220;6.920;2024-03-08T08:31:59;98431.81;;;16.00;72.58
62833;BME280;48891;49.220;6.920;2024-03-08T08:34:25;98416.38;;;15.93;72.58
62833;BME280;48891;49.220;6.920;2024-03-08T08:36:50;98434.81;;;16.06;72.67
62833;BME280;48891;49.220;6.920;2024-03-08T08:39:16;98430.19;;;16.08;72.81
62833;BME280;48891;49.220;6.920;2024-03-08T08:41:41;98430.19;;;16.08;72.90
62833;BME280;48891;49.220;6.920;2024-03-08T08:44:06;98425.34;;;16.13;72.33
62833;BME280;48891;49.220;6.920;2024-03-08T08:46:32;98424.22;;;16.16;72.34
62833;BME280;48891;49.220;6.920;2024-03-08T08:48:57;98420.59;;;16.17;72.28
62833;BME280;48891;49.220;6.920;2024-03-08T08:51:22;98415.28;;;16.17;72.62
62833;BME280;48891;49.220;6.920;2024-03-08T08:53:47;98432.41;;;16.24;72.20
62833;BME280;48891;49.220;6.920;2024-03-08T08:56:13;98411.78;;;16.17;72.37
62833;BME280;48891;49.220;6.920;2024-03-08T08:58:39;98416.94;;;16.18;72.10
62833;BME280;48891;49.220;6.920;2024-03-08T09:01:05;98429.19;;;16.30;71.81
62833;BME280;48891;49.220;6.920;2024-03-08T09:03:30;98432.59;;;16.32;72.06
62833;BME280;48891;49.220;6.920;2024-03-08T09:05:55;98421.53;;;16.37;71.57
62833;BME280;48891;49.220;6.920;2024-03-08T09:08:20;98427.44;;;16.41;71.56
62833;BME280;48891;49.220;6.920;2024-03-08T09:10:46;98426.03;;;16.46;71.74
62833;BME280;48891;49.220;6.920;2024-03-08T09:13:12;98423.13;;;16.49;71.40
62833;BME280;48891;49.220;6.920;2024-03-08T09:15:37;98423.00;;;16.51;71.52
62833;BME280;48891;49.220;6.920;2024-03-08T09:18:03;98426.38;;;16.53;71.72
62833;BME280;48891;49.220;6.920;2024-03-08T09:20:28;98409.31;;;16.56;71.30
62833;BME280;48891;49.220;6.920;2024-03-08T09:22:53;98412.53;;;16.59;71.33
62833;BME280;48891;49.220;6.920;2024-03-08T09:25:19;98410.56;;;16.61;71.27
62833;BME280;48891;49.220;6.920;2024-03-08T09:27:44;98405.81;;;16.65;70.98
62833;BME280;48891;49.220;6.920;2024-03-08T09:30:10;98409.06;;;16.68;70.70
62833;BME280;48891;49.220;6.920;2024-03-08T09:32:35;98398.53;;;16.67;70.68
62833;BME280;48891;49.220;6.920;2024-03-08T09:35:01;98384.41;;;16.66;70.65
62833;BME280;48891;49.220;6.920;2024-03-08T09:37:26;98367.75;;;16.64;70.74
62833;BME280;48891;49.220;6.920;2024-03-08T09:39:52;98388.78;;;16.77;70.48
62833;BME280;48891;49.220;6.920;2024-03-08T09:42:17;98390.91;;;16.83;70.42
62833;BME280;48891;49.220;6.920;2024-03-08T09:44:46;98381.97;;;16.84;70.42
62833;BME280;48891;49.220;6.920;2024-03-08T09:47:15;98380.56;;;16.90;69.83
62833;BME280;48891;49.220;6.920;2024-03-08T09:49:41;98375.94;;;16.92;69.69
62833;BME280;48891;49.220;6.920;2024-03-08T09:52:07;98374.66;;;16.96;69.88
62833;BME280;48891;49.220;6.920;2024-03-08T09:54:32;98371.03;;;16.97;69.38
62833;BME280;48891;49.220;6.920;2024-03-08T09:56:58;98372.59;;;17.00;69.34
62833;BME280;48891;49.220;6.920;2024-03-08T09:59:23;98362.91;;;17.08;69.07
62833;BME280;48891;49.220;6.920;2024-03-08T10:01:48;98359.16;;;17.11;69.03
62833;BME280;48891;49.220;6.920;2024-03-08T10:04:14;98365.44;;;17.10;68.94
62833;BME280;48891;49.220;6.920;2024-03-08T10:06:40;98365.59;;;17.18;68.73
62833;BME280;48891;49.220;6.920;2024-03-08T10:09:05;98356.66;;;17.19;68.77
62833;BME280;48891;49.220;6.920;2024-03-08T10:11:30;98351.88;;;17.23;68.60
62833;BME280;48891;49.220;6.920;2024-03-08T10:13:55;98356.75;;;17.27;68.08
62833;BME280;48891;49.220;6.920;2024-03-08T10:16:21;98347.66;;;17.30;68.42
62833;BME280;48891;49.220;6.920;2024-03-08T10:18:46;98344.00;;;17.31;68.29
62833;BME280;48891;49.220;6.920;2024-03-08T10:21:11;98340.09;;;17.35;68.16
62833;BME280;48891;49.220;6.920;2024-03-08T10:23:37;98340.66;;;17.39;67.81
62833;BME280;48891;49.220;6.920;2024-03-08T10:26:16;98334.19;;;17.41;67.91
62833;BME280;48891;49.220;6.920;2024-03-08T10:28:42;98327.03;;;17.42;68.02
62833;BME280;48891;49.220;6.920;2024-03-08T10:31:09;98339.66;;;17.50;67.96
62833;BME280;48891;49.220;6.920;2024-03-08T10:33:34;98324.78;;;17.47;68.01
62833;BME280;48891;49.220;6.920;2024-03-08T10:36:00;98321.00;;;17.50;67.86
62833;BME280;48891;49.220;6.920;2024-03-08T10:38:26;98326.88;;;17.53;67.85
62833;BME280;48891;49.220;6.920;2024-03-08T10:40:51;98311.47;;;17.47;67.69
62833;BME280;48891;49.220;6.920;2024-03-08T10:43:23;98320.00;;;17.60;67.56
62833;BME280;48891;49.220;6.920;2024-03-08T10:45:49;98321.81;;;17.60;67.48
62833;BME280;48891;49.220;6.920;2024-03-08T10:48:30;98318.72;;;17.64;67.63
62833;BME280;48891;49.220;6.920;2024-03-08T10:50:57;98299.78;;;17.58;67.62
62833;BME280;48891;49.220;6.920;2024-03-08T10:53:22;98304.84;;;17.61;67.63
62833;BME280;48891;49.220;6.920;2024-03-08T10:55:49;98315.19;;;17.74;67.19
62833;BME280;48891;49.220;6.920;2024-03-08T10:58:15;98301.72;;;17.75;67.56
62833;BME280;48891;49.220;6.920;2024-03-08T11:00:41;98297.22;;;17.76;67.49
62833;BME280;48891;49.220;6.920;2024-03-08T11:03:07;98296.25;;;17.77;67.42
62833;BME280;48891;49.220;6.920;2024-03-08T11:05:39;98291.47;;;17.80;66.81
62833;BME280;48891;49.220;6.920;2024-03-08T11:11:23;98294.44;;;17.87;66.90
62833;BME280;48891;49.220;6.920;2024-03-08T11:13:48;98287.28;;;17.78;66.83
62833;BME280;48891;49.220;6.920;2024-03-08T11:18:54;98292.31;;;17.91;67.05
62833;BME280;48891;49.220;6.920;2024-03-08T11:21:19;98286.84;;;17.92;67.04
62833;BME280;48891;49.220;6.920;2024-03-08T11:23:59;98279.22;;;17.97;66.89
62833;BME280;48891;49.220;6.920;2024-03-08T11:26:24;98269.28;;;17.90;66.57
62833;BME280;48891;49.220;6.920;2024-03-08T11:28:50;98256.09;;;17.88;66.54
62833;BME280;48891;49.220;6.920;2024-03-08T11:31:22;98272.47;;;18.03;66.27
62833;BME280;48891;49.220;6.920;2024-03-08T11:33:48;98267.81;;;18.05;66.25
62833;BME280;48891;49.220;6.920;2024-03-08T11:36:20;98274.84;;;18.06;66.18
62833;BME280;48891;49.220;6.920;2024-03-08T11:38:46;98260.75;;;18.14;66.25
62833;BME280;48891;49.220;6.920;2024-03-08T11:41:11;98255.28;;;18.15;65.74
62833;BME280;48891;49.220;6.920;2024-03-08T11:43:36;98227.81;;;18.05;65.86
62833;BME280;48891;49.220;6.920;2024-03-08T11:46:09;98248.38;;;18.23;65.77
62833;BME280;48891;49.220;6.920;2024-03-08T11:48:34;98240.38;;;18.23;65.72
62833;BME280;48891;49.220;6.920;2024-03-08T11:51:00;98245.78;;;18.31;65.31
62833;BME280;48891;49.220;6.920;2024-03-08T11:53:26;98241.44;;;18.30;65.24
62833;BME280;48891;49.220;6.920;2024-03-08T11:55:51;98233.00;;;18.34;65.41
62833;BME280;48891;49.220;6.920;2024-03-08T11:58:17;98237.88;;;18.39;65.32
62833;BME280;48891;49.220;6.920;2024-03-08T12:00:42;98228.88;;;18.40;64.91
62833;BME280;48891;49.220;6.920;2024-03-08T12:03:08;98220.19;;;18.38;64.69
62833;BME280;48891;49.220;6.920;2024-03-08T12:05:33;98224.47;;;18.49;64.85
62833;BME280;48891;49.220;6.920;2024-03-08T12:07:59;98211.97;;;18.49;64.93
62833;BME280;48891;49.220;6.920;2024-03-08T12:10:25;98209.00;;;18.52;64.49
62833;BME280;48891;49.220;6.920;2024-03-08T12:12:56;98205.16;;;18.55;64.25
62833;BME280;48891;49.220;6.920;2024-03-08T12:15:23;98208.66;;;18.55;64.39
62833;BME280;48891;49.220;6.920;2024-03-08T12:17:51;98197.25;;;18.63;64.52
62833;BME280;48891;49.220;6.920;2024-03-08T12:20:24;98192.44;;;18.67;64.24
62833;BME280;48891;49.220;6.920;2024-03-08T12:22:50;98201.13;;;18.69;64.08
62833;BME280;48891;49.220;6.920;2024-03-08T12:25:16;98188.75;;;18.68;64.33
62833;BME280;48891;49.220;6.920;2024-03-08T12:27:43;98187.16;;;18.75;63.96
62833;BME280;48891;49.220;6.920;2024-03-08T12:32:50;98180.94;;;18.84;63.66
62833;BME280;48891;49.220;6.920;2024-03-08T12:35:15;98176.44;;;18.85;64.00
62833;BME280;48891;49.220;6.920;2024-03-08T12:37:41;98174.00;;;18.91;63.82
62833;BME280;48891;49.220;6.920;2024-03-08T12:40:08;98159.63;;;18.92;63.88
62833;BME280;48891;49.220;6.920;2024-03-08T12:42:34;98163.16;;;18.93;63.52
62833;BME280;48891;49.220;6.920;2024-03-08T12:44:59;98144.81;;;18.98;63.15
62833;BME280;48891;49.220;6.920;2024-03-08T12:47:24;98146.34;;;19.01;63.26
62833;BME280;48891;49.220;6.920;2024-03-08T12:49:49;98150.50;;;19.03;63.40
62833;BME280;48891;49.220;6.920;2024-03-08T12:52:15;98145.69;;;19.07;62.93
62833;BME280;48891;49.220;6.920;2024-03-08T12:54:40;98142.72;;;19.10;62.97
62833;BME280;48891;49.220;6.920;2024-03-08T12:57:05;98137.06;;;19.13;62.72
62833;BME280;48891;49.220;6.920;2024-03-08T12:59:30;98138.56;;;19.15;62.69
62833;BME280;48891;49.220;6.920;2024-03-08T13:01:56;98129.28;;;19.20;62.56
62833;BME280;48891;49.220;6.920;2024-03-08T13:04:21;98128.94;;;19.23;62.56